Not for real navigation | The accuracy of this data is not assured | See disclaimer for more information
ICAO NAME COUNTRY WIND Kt GUST Kt VIS TEMP/DEW BARO
EHAK 53 63 9999 7/2 29.21
EHAK 170355Z AUTO 24053G63KT 200V260 //// // FEW024/// SCT029/// 07/02 Q0989 RE//
ENLE 52 62 9999 7/2 29.03
ENLE 170350Z 22052G62KT 9999 SCT040 BKN100 07/02 Q0983 W08/S7
EGPA Kirkwall Airport United Kingdom 46 61 3600 7/3 28.44
EGPA 170350Z AUTO 24046G61KT 3600 RA FEW021/// BKN025/// BKN034/// 07/03 Q0963
ENSF 47 57 9999 0/0 29.92
ENSF 170350Z AUTO 21047G57KT 9999NDV -SHRA FEW017/// BKN019/// ///// Q//// W///S7
RKPM Mosulpo Ab Korea, South 27 50 1600 0/-1 30.11
RKPM 170344Z 33027G050KT 1600 -SN BR SCT000 OVC015 M00/M01 A3011 RMK CIG015 FG SCT000

Show more

Close Menu